sensor_id;sensor_type;location;lat;lon;timestamp;temperature;humidity
420;DHT22;42600;54.408;13.016;2023-07-29T00:01:54;16.80;92.70
420;DHT22;42600;54.408;13.016;2023-07-29T00:04:21;16.80;92.70
420;DHT22;42600;54.408;13.016;2023-07-29T00:06:47;16.80;92.70
420;DHT22;42600;54.408;13.016;2023-07-29T00:09:14;16.70;92.70
420;DHT22;42600;54.408;13.016;2023-07-29T00:11:40;16.70;92.70
420;DHT22;42600;54.408;13.016;2023-07-29T00:14:07;16.60;92.70
420;DHT22;42600;54.408;13.016;2023-07-29T00:16:35;16.60;92.70
420;DHT22;42600;54.408;13.016;2023-07-29T00:19:02;16.60;92.70
420;DHT22;42600;54.408;13.016;2023-07-29T00:21:29;16.50;92.70
420;DHT22;42600;54.408;13.016;2023-07-29T00:23:56;16.40;92.70
420;DHT22;42600;54.408;13.016;2023-07-29T00:26:22;16.40;92.70
420;DHT22;42600;54.408;13.016;2023-07-29T00:28:51;16.40;92.70
420;DHT22;42600;54.408;13.016;2023-07-29T00:31:18;16.40;92.70
420;DHT22;42600;54.408;13.016;2023-07-29T00:33:45;16.40;92.70
420;DHT22;42600;54.408;13.016;2023-07-29T00:36:12;16.40;92.70
420;DHT22;42600;54.408;13.016;2023-07-29T00:38:39;16.40;92.70
420;DHT22;42600;54.408;13.016;2023-07-29T00:41:05;16.40;92.70
420;DHT22;42600;54.408;13.016;2023-07-29T00:43:33;16.40;92.70
420;DHT22;42600;54.408;13.016;2023-07-29T00:46:00;16.40;92.70
420;DHT22;42600;54.408;13.016;2023-07-29T00:48:27;16.30;92.70
420;DHT22;42600;54.408;13.016;2023-07-29T00:50:55;16.30;92.70
420;DHT22;42600;54.408;13.016;2023-07-29T00:53:21;16.30;92.70
420;DHT22;42600;54.408;13.016;2023-07-29T00:55:48;16.30;92.70
420;DHT22;42600;54.408;13.016;2023-07-29T00:58:15;16.30;92.70
420;DHT22;42600;54.408;13.016;2023-07-29T01:00:41;16.30;92.70
420;DHT22;42600;54.408;13.016;2023-07-29T01:03:08;16.30;92.70
420;DHT22;42600;54.408;13.016;2023-07-29T01:05:41;16.30;92.70
420;DHT22;42600;54.408;13.016;2023-07-29T01:08:15;16.30;92.70
420;DHT22;42600;54.408;13.016;2023-07-29T01:10:51;16.30;92.70
420;DHT22;42600;54.408;13.016;2023-07-29T01:13:25;16.30;92.70
420;DHT22;42600;54.408;13.016;2023-07-29T01:15:55;16.30;92.70
420;DHT22;42600;54.408;13.016;2023-07-29T01:18:26;16.30;92.70
420;DHT22;42600;54.408;13.016;2023-07-29T01:20:54;16.30;92.70
420;DHT22;42600;54.408;13.016;2023-07-29T01:23:26;16.30;92.70
420;DHT22;42600;54.408;13.016;2023-07-29T01:25:52;16.30;92.70
420;DHT22;42600;54.408;13.016;2023-07-29T01:28:19;16.30;92.70
420;DHT22;42600;54.408;13.016;2023-07-29T01:30:49;16.30;92.70
420;DHT22;42600;54.408;13.016;2023-07-29T01:33:23;16.30;92.70
420;DHT22;42600;54.408;13.016;2023-07-29T01:35:56;16.30;92.70
420;DHT22;42600;54.408;13.016;2023-07-29T01:38:29;16.30;92.70
420;DHT22;42600;54.408;13.016;2023-07-29T01:41:01;16.30;92.70
420;DHT22;42600;54.408;13.016;2023-07-29T01:43:28;16.30;92.70
420;DHT22;42600;54.408;13.016;2023-07-29T01:45:55;16.30;92.70
420;DHT22;42600;54.408;13.016;2023-07-29T01:48:22;16.30;92.70
420;DHT22;42600;54.408;13.016;2023-07-29T01:50:49;16.30;92.70
420;DHT22;42600;54.408;13.016;2023-07-29T01:53:15;16.30;92.70
420;DHT22;42600;54.408;13.016;2023-07-29T01:55:44;16.30;92.70
420;DHT22;42600;54.408;13.016;2023-07-29T01:58:10;16.30;92.70
420;DHT22;42600;54.408;13.016;2023-07-29T02:00:38;16.30;92.70
420;DHT22;42600;54.408;13.016;2023-07-29T02:03:05;16.30;92.70
420;DHT22;42600;54.408;13.016;2023-07-29T02:05:31;16.30;92.70
420;DHT22;42600;54.408;13.016;2023-07-29T02:07:58;16.20;92.70
420;DHT22;42600;54.408;13.016;2023-07-29T02:10:25;16.20;92.70
420;DHT22;42600;54.408;13.016;2023-07-29T02:12:53;16.20;92.70
420;DHT22;42600;54.408;13.016;2023-07-29T02:15:19;16.30;92.70
420;DHT22;42600;54.408;13.016;2023-07-29T02:17:46;16.30;92.70
420;DHT22;42600;54.408;13.016;2023-07-29T02:20:12;16.20;92.70
420;DHT22;42600;54.408;13.016;2023-07-29T02:22:39;16.30;92.70
420;DHT22;42600;54.408;13.016;2023-07-29T02:25:06;16.30;92.70
420;DHT22;42600;54.408;13.016;2023-07-29T02:27:32;16.40;92.70
420;DHT22;42600;54.408;13.016;2023-07-29T02:30:00;16.30;92.70
420;DHT22;42600;54.408;13.016;2023-07-29T02:32:27;16.30;92.70
420;DHT22;42600;54.408;13.016;2023-07-29T02:34:54;16.30;92.70
420;DHT22;42600;54.408;13.016;2023-07-29T02:37:20;16.30;92.70
420;DHT22;42600;54.408;13.016;2023-07-29T02:39:47;16.30;92.70
420;DHT22;42600;54.408;13.016;2023-07-29T02:42:14;16.30;92.70
420;DHT22;42600;54.408;13.016;2023-07-29T02:44:40;16.30;92.70
420;DHT22;42600;54.408;13.016;2023-07-29T02:47:08;16.30;92.70
420;DHT22;42600;54.408;13.016;2023-07-29T02:49:35;16.30;92.70
420;DHT22;42600;54.408;13.016;2023-07-29T02:52:01;16.30;92.70
420;DHT22;42600;54.408;13.016;2023-07-29T02:54:28;16.30;92.70
420;DHT22;42600;54.408;13.016;2023-07-29T02:56:55;16.30;92.70
420;DHT22;42600;54.408;13.016;2023-07-29T02:59:21;16.30;92.70
420;DHT22;42600;54.408;13.016;2023-07-29T03:01:48;16.40;92.70
420;DHT22;42600;54.408;13.016;2023-07-29T03:04:16;16.40;92.70
420;DHT22;42600;54.408;13.016;2023-07-29T03:06:42;16.40;92.70
420;DHT22;42600;54.408;13.016;2023-07-29T03:09:09;16.40;92.70
420;DHT22;42600;54.408;13.016;2023-07-29T03:11:36;16.40;92.70
420;DHT22;42600;54.408;13.016;2023-07-29T03:14:02;16.40;92.70
420;DHT22;42600;54.408;13.016;2023-07-29T03:16:29;16.30;92.70
420;DHT22;42600;54.408;13.016;2023-07-29T03:18:55;16.40;92.70
420;DHT22;42600;54.408;13.016;2023-07-29T03:21:24;16.40;92.70
420;DHT22;42600;54.408;13.016;2023-07-29T03:23:50;16.40;92.70
420;DHT22;42600;54.408;13.016;2023-07-29T03:26:17;16.50;92.70
420;DHT22;42600;54.408;13.016;2023-07-29T03:28:43;16.60;92.70
420;DHT22;42600;54.408;13.016;2023-07-29T03:31:10;16.60;92.70
420;DHT22;42600;54.408;13.016;2023-07-29T03:33:37;16.60;92.70
420;DHT22;42600;54.408;13.016;2023-07-29T03:36:04;16.60;92.70
420;DHT22;42600;54.408;13.016;2023-07-29T03:38:32;16.60;92.70
420;DHT22;42600;54.408;13.016;2023-07-29T03:41:00;16.60;92.70
420;DHT22;42600;54.408;13.016;2023-07-29T03:43:28;16.60;92.70
420;DHT22;42600;54.408;13.016;2023-07-29T03:45:54;16.60;92.70
420;DHT22;42600;54.408;13.016;2023-07-29T03:48:21;16.60;92.70
420;DHT22;42600;54.408;13.016;2023-07-29T03:50:47;16.60;92.70
420;DHT22;42600;54.408;13.016;2023-07-29T03:53:14;16.60;92.70
420;DHT22;42600;54.408;13.016;2023-07-29T03:55:42;16.70;92.70
420;DHT22;42600;54.408;13.016;2023-07-29T03:58:08;16.70;92.70
420;DHT22;42600;54.408;13.016;2023-07-29T04:00:35;16.70;92.70
420;DHT22;42600;54.408;13.016;2023-07-29T04:03:01;16.70;92.70
420;DHT22;42600;54.408;13.016;2023-07-29T04:05:28;16.60;92.70
420;DHT22;42600;54.408;13.016;2023-07-29T04:07:55;16.60;92.70
420;DHT22;42600;54.408;13.016;2023-07-29T04:10:21;16.70;92.70
420;DHT22;42600;54.408;13.016;2023-07-29T04:12:49;16.80;92.70
420;DHT22;42600;54.408;13.016;2023-07-29T04:15:16;16.80;92.70
420;DHT22;42600;54.408;13.016;2023-07-29T04:17:42;16.90;92.70
420;DHT22;42600;54.408;13.016;2023-07-29T04:20:10;17.00;92.70
420;DHT22;42600;54.408;13.016;2023-07-29T04:22:37;17.10;92.50
420;DHT22;42600;54.408;13.016;2023-07-29T04:25:04;17.20;91.50
420;DHT22;42600;54.408;13.016;2023-07-29T04:27:31;17.30;90.70
420;DHT22;42600;54.408;13.016;2023-07-29T04:29:59;17.40;92.40
420;DHT22;42600;54.408;13.016;2023-07-29T04:32:25;17.40;92.20
420;DHT22;42600;54.408;13.016;2023-07-29T04:34:52;17.50;91.40
420;DHT22;42600;54.408;13.016;2023-07-29T04:37:19;17.50;90.80
420;DHT22;42600;54.408;13.016;2023-07-29T04:39:45;17.60;91.30
420;DHT22;42600;54.408;13.016;2023-07-29T04:42:12;17.70;91.20
420;DHT22;42600;54.408;13.016;2023-07-29T04:44:39;17.70;90.30
420;DHT22;42600;54.408;13.016;2023-07-29T04:47:08;17.70;90.70
420;DHT22;42600;54.408;13.016;2023-07-29T04:49:35;17.80;89.20
420;DHT22;42600;54.408;13.016;2023-07-29T04:52:01;17.80;91.00
420;DHT22;42600;54.408;13.016;2023-07-29T04:54:28;17.70;91.30
420;DHT22;42600;54.408;13.016;2023-07-29T04:56:54;17.70;90.50
420;DHT22;42600;54.408;13.016;2023-07-29T04:59:21;17.70;90.80
420;DHT22;42600;54.408;13.016;2023-07-29T05:01:48;17.70;92.50
420;DHT22;42600;54.408;13.016;2023-07-29T05:04:15;17.60;92.60
420;DHT22;42600;54.408;13.016;2023-07-29T05:06:42;17.50;92.70
420;DHT22;42600;54.408;13.016;2023-07-29T05:09:15;17.60;92.20
420;DHT22;42600;54.408;13.016;2023-07-29T05:11:42;17.60;92.10
420;DHT22;42600;54.408;13.016;2023-07-29T05:14:10;17.80;92.70
420;DHT22;42600;54.408;13.016;2023-07-29T05:16:37;17.80;92.70
420;DHT22;42600;54.408;13.016;2023-07-29T05:19:03;17.80;92.70
420;DHT22;42600;54.408;13.016;2023-07-29T05:21:31;18.00;92.70
420;DHT22;42600;54.408;13.016;2023-07-29T05:23:58;18.00;92.70
420;DHT22;42600;54.408;13.016;2023-07-29T05:26:24;18.10;92.70
420;DHT22;42600;54.408;13.016;2023-07-29T05:28:51;18.10;92.70
420;DHT22;42600;54.408;13.016;2023-07-29T05:31:17;18.30;91.90
420;DHT22;42600;54.408;13.016;2023-07-29T05:33:44;18.40;90.00
420;DHT22;42600;54.408;13.016;2023-07-29T05:36:10;18.60;90.20
420;DHT22;42600;54.408;13.016;2023-07-29T05:38:38;18.70;86.80
420;DHT22;42600;54.408;13.016;2023-07-29T05:41:05;18.80;87.00
420;DHT22;42600;54.408;13.016;2023-07-29T05:43:32;18.90;87.30
420;DHT22;42600;54.408;13.016;2023-07-29T05:45:58;19.00;86.20
420;DHT22;42600;54.408;13.016;2023-07-29T05:48:25;19.10;86.50
420;DHT22;42600;54.408;13.016;2023-07-29T05:50:51;19.20;86.20
420;DHT22;42600;54.408;13.016;2023-07-29T05:53:18;19.30;87.50
420;DHT22;42600;54.408;13.016;2023-07-29T05:55:46;19.40;86.30
420;DHT22;42600;54.408;13.016;2023-07-29T05:58:12;19.40;86.40
420;DHT22;42600;54.408;13.016;2023-07-29T06:00:39;19.40;86.40
420;DHT22;42600;54.408;13.016;2023-07-29T06:03:05;19.50;87.80
420;DHT22;42600;54.408;13.016;2023-07-29T06:05:32;19.50;86.40
420;DHT22;42600;54.408;13.016;2023-07-29T06:07:58;19.60;87.20
420;DHT22;42600;54.408;13.016;2023-07-29T06:10:25;19.60;87.10
420;DHT22;42600;54.408;13.016;2023-07-29T06:12:53;19.70;87.20
420;DHT22;42600;54.408;13.016;2023-07-29T06:15:19;19.70;86.90
420;DHT22;42600;54.408;13.016;2023-07-29T06:17:48;19.70;87.00
420;DHT22;42600;54.408;13.016;2023-07-29T06:20:15;19.80;86.70
420;DHT22;42600;54.408;13.016;2023-07-29T06:22:41;19.80;87.50
420;DHT22;42600;54.408;13.016;2023-07-29T06:25:08;19.80;89.50
420;DHT22;42600;54.408;13.016;2023-07-29T06:27:35;19.80;87.50
420;DHT22;42600;54.408;13.016;2023-07-29T06:30:03;19.80;90.20
420;DHT22;42600;54.408;13.016;2023-07-29T06:32:29;19.80;87.50
420;DHT22;42600;54.408;13.016;2023-07-29T06:34:56;19.90;88.30
420;DHT22;42600;54.408;13.016;2023-07-29T06:37:23;19.90;89.20
420;DHT22;42600;54.408;13.016;2023-07-29T06:39:49;19.90;91.50
420;DHT22;42600;54.408;13.016;2023-07-29T06:42:16;19.80;90.10
420;DHT22;42600;54.408;13.016;2023-07-29T06:44:42;19.80;88.30
420;DHT22;42600;54.408;13.016;2023-07-29T06:47:12;19.80;87.10
420;DHT22;42600;54.408;13.016;2023-07-29T06:49:39;19.90;88.60
420;DHT22;42600;54.408;13.016;2023-07-29T06:52:05;19.90;89.40
420;DHT22;42600;54.408;13.016;2023-07-29T06:54:32;19.80;90.30
420;DHT22;42600;54.408;13.016;2023-07-29T06:56:59;19.80;92.10
420;DHT22;42600;54.408;13.016;2023-07-29T06:59:25;19.80;92.10
420;DHT22;42600;54.408;13.016;2023-07-29T07:01:52;19.80;90.70
420;DHT22;42600;54.408;13.016;2023-07-29T07:04:20;19.80;88.70
420;DHT22;42600;54.408;13.016;2023-07-29T07:06:46;19.90;88.90
420;DHT22;42600;54.408;13.016;2023-07-29T07:09:13;20.00;91.20
420;DHT22;42600;54.408;13.016;2023-07-29T07:11:39;19.90;91.90
420;DHT22;42600;54.408;13.016;2023-07-29T07:14:06;19.90;89.10
420;DHT22;42600;54.408;13.016;2023-07-29T07:16:32;20.00;88.70
420;DHT22;42600;54.408;13.016;2023-07-29T07:19:02;20.00;90.80
420;DHT22;42600;54.408;13.016;2023-07-29T07:21:30;19.90;92.70
420;DHT22;42600;54.408;13.016;2023-07-29T07:23:58;19.90;92.00
420;DHT22;42600;54.408;13.016;2023-07-29T07:26:24;20.00;91.80
420;DHT22;42600;54.408;13.016;2023-07-29T07:28:51;20.00;92.50
420;DHT22;42600;54.408;13.016;2023-07-29T07:31:18;20.00;92.70
420;DHT22;42600;54.408;13.016;2023-07-29T07:33:44;20.00;92.70
420;DHT22;42600;54.408;13.016;2023-07-29T07:36:11;20.00;92.70
420;DHT22;42600;54.408;13.016;2023-07-29T07:38:39;20.10;92.70
420;DHT22;42600;54.408;13.016;2023-07-29T07:41:05;20.20;92.70
420;DHT22;42600;54.408;13.016;2023-07-29T07:43:32;20.20;92.70
420;DHT22;42600;54.408;13.016;2023-07-29T07:46:00;20.30;91.70
420;DHT22;42600;54.408;13.016;2023-07-29T07:48:28;20.40;92.70
420;DHT22;42600;54.408;13.016;2023-07-29T07:50:54;20.40;92.60
420;DHT22;42600;54.408;13.016;2023-07-29T07:53:21;20.50;91.60
420;DHT22;42600;54.408;13.016;2023-07-29T07:55:49;20.50;91.60
420;DHT22;42600;54.408;13.016;2023-07-29T07:58:16;20.60;92.70
420;DHT22;42600;54.408;13.016;2023-07-29T08:00:42;20.60;92.70
420;DHT22;42600;54.408;13.016;2023-07-29T08:03:09;20.60;92.70
420;DHT22;42600;54.408;13.016;2023-07-29T08:05:35;20.60;92.70
420;DHT22;42600;54.408;13.016;2023-07-29T08:08:02;20.60;92.70
420;DHT22;42600;54.408;13.016;2023-07-29T08:10:29;20.60;92.70
420;DHT22;42600;54.408;13.016;2023-07-29T08:12:57;20.70;92.70
420;DHT22;42600;54.408;13.016;2023-07-29T08:15:23;20.70;92.70
420;DHT22;42600;54.408;13.016;2023-07-29T08:17:50;20.70;92.70
420;DHT22;42600;54.408;13.016;2023-07-29T08:20:16;20.80;92.70
420;DHT22;42600;54.408;13.016;2023-07-29T08:22:43;20.80;92.70
420;DHT22;42600;54.408;13.016;2023-07-29T08:25:09;20.80;92.70
420;DHT22;42600;54.408;13.016;2023-07-29T08:27:36;20.90;92.70
420;DHT22;42600;54.408;13.016;2023-07-29T08:30:05;20.90;92.70
420;DHT22;42600;54.408;13.016;2023-07-29T08:32:32;20.90;92.70
420;DHT22;42600;54.408;13.016;2023-07-29T08:34:59;21.00;92.70
420;DHT22;42600;54.408;13.016;2023-07-29T08:37:25;21.00;92.70
420;DHT22;42600;54.408;13.016;2023-07-29T08:39:52;20.90;92.70
420;DHT22;42600;54.408;13.016;2023-07-29T08:42:21;20.90;92.70
420;DHT22;42600;54.408;13.016;2023-07-29T08:44:49;20.90;92.70
420;DHT22;42600;54.408;13.016;2023-07-29T08:47:19;21.00;92.70
420;DHT22;42600;54.408;13.016;2023-07-29T08:49:46;21.00;92.70
420;DHT22;42600;54.408;13.016;2023-07-29T08:52:14;21.00;92.70
420;DHT22;42600;54.408;13.016;2023-07-29T08:54:41;21.10;92.70
420;DHT22;42600;54.408;13.016;2023-07-29T08:57:07;21.10;92.70
420;DHT22;42600;54.408;13.016;2023-07-29T08:59:34;21.20;92.70
420;DHT22;42600;54.408;13.016;2023-07-29T09:02:01;21.20;92.70
420;DHT22;42600;54.408;13.016;2023-07-29T09:04:29;21.30;92.70
420;DHT22;42600;54.408;13.016;2023-07-29T09:06:56;21.40;92.70
420;DHT22;42600;54.408;13.016;2023-07-29T09:09:25;21.50;92.70
420;DHT22;42600;54.408;13.016;2023-07-29T09:11:51;21.70;91.30
420;DHT22;42600;54.408;13.016;2023-07-29T09:14:18;21.70;91.00
420;DHT22;42600;54.408;13.016;2023-07-29T09:16:46;21.80;89.90
420;DHT22;42600;54.408;13.016;2023-07-29T09:19:12;22.10;88.80
420;DHT22;42600;54.408;13.016;2023-07-29T09:21:41;22.20;87.60
420;DHT22;42600;54.408;13.016;2023-07-29T09:24:08;22.40;87.00
420;DHT22;42600;54.408;13.016;2023-07-29T09:26:35;22.40;86.80
420;DHT22;42600;54.408;13.016;2023-07-29T09:29:02;22.50;86.60
420;DHT22;42600;54.408;13.016;2023-07-29T09:31:29;22.70;86.30
420;DHT22;42600;54.408;13.016;2023-07-29T09:33:57;22.80;86.60
420;DHT22;42600;54.408;13.016;2023-07-29T09:36:24;23.00;85.20
420;DHT22;42600;54.408;13.016;2023-07-29T09:38:54;23.20;85.00
420;DHT22;42600;54.408;13.016;2023-07-29T09:41:22;23.30;84.60
420;DHT22;42600;54.408;13.016;2023-07-29T09:43:55;23.40;83.90
420;DHT22;42600;54.408;13.016;2023-07-29T09:46:23;23.50;83.50
420;DHT22;42600;54.408;13.016;2023-07-29T09:48:53;23.60;83.10
420;DHT22;42600;54.408;13.016;2023-07-29T09:51:21;23.70;82.80
420;DHT22;42600;54.408;13.016;2023-07-29T09:53:49;23.80;83.00
420;DHT22;42600;54.408;13.016;2023-07-29T09:56:17;23.80;83.50
420;DHT22;42600;54.408;13.016;2023-07-29T09:58:44;23.90;83.10
420;DHT22;42600;54.408;13.016;2023-07-29T10:01:12;24.00;82.40
420;DHT22;42600;54.408;13.016;2023-07-29T10:03:39;24.10;81.90
420;DHT22;42600;54.408;13.016;2023-07-29T10:06:07;24.20;82.00
420;DHT22;42600;54.408;13.016;2023-07-29T10:08:34;24.30;81.80
420;DHT22;42600;54.408;13.016;2023-07-29T10:11:05;24.40;81.10
420;DHT22;42600;54.408;13.016;2023-07-29T10:13:33;24.50;80.70
420;DHT22;42600;54.408;13.016;2023-07-29T10:16:00;24.60;80.00
420;DHT22;42600;54.408;13.016;2023-07-29T10:18:28;24.60;79.90
420;DHT22;42600;54.408;13.016;2023-07-29T10:20:57;24.60;79.50
420;DHT22;42600;54.408;13.016;2023-07-29T10:23:25;24.60;79.40
420;DHT22;42600;54.408;13.016;2023-07-29T10:25:57;24.60;79.40
420;DHT22;42600;54.408;13.016;2023-07-29T10:28:26;24.70;79.10
420;DHT22;42600;54.408;13.016;2023-07-29T10:30:56;24.60;79.40
420;DHT22;42600;54.408;13.016;2023-07-29T10:33:22;24.70;79.50
420;DHT22;42600;54.408;13.016;2023-07-29T10:35:49;24.70;80.40
420;DHT22;42600;54.408;13.016;2023-07-29T10:38:16;24.70;80.80
420;DHT22;42600;54.408;13.016;2023-07-29T10:40:45;24.70;80.90
420;DHT22;42600;54.408;13.016;2023-07-29T10:43:14;24.70;81.00
420;DHT22;42600;54.408;13.016;2023-07-29T10:45:44;24.80;80.90
420;DHT22;42600;54.408;13.016;2023-07-29T10:48:13;24.80;81.10
420;DHT22;42600;54.408;13.016;2023-07-29T10:50:40;24.80;81.00
420;DHT22;42600;54.408;13.016;2023-07-29T10:53:06;24.80;81.00
420;DHT22;42600;54.408;13.016;2023-07-29T10:55:34;24.80;81.00
420;DHT22;42600;54.408;13.016;2023-07-29T10:58:12;24.80;81.20
420;DHT22;42600;54.408;13.016;2023-07-29T11:00:40;24.70;81.80
420;DHT22;42600;54.408;13.016;2023-07-29T11:03:08;24.60;82.20
420;DHT22;42600;54.408;13.016;2023-07-29T11:05:47;24.70;81.90
420;DHT22;42600;54.408;13.016;2023-07-29T11:08:27;24.70;82.40
420;DHT22;42600;54.408;13.016;2023-07-29T11:11:05;24.70;82.40
420;DHT22;42600;54.408;13.016;2023-07-29T11:13:33;24.80;82.30
420;DHT22;42600;54.408;13.016;2023-07-29T11:16:00;24.80;82.20
420;DHT22;42600;54.408;13.016;2023-07-29T11:18:29;24.90;82.40
420;DHT22;42600;54.408;13.016;2023-07-29T11:20:57;25.00;82.20
420;DHT22;42600;54.408;13.016;2023-07-29T11:23:29;25.00;82.10
420;DHT22;42600;54.408;13.016;2023-07-29T11:25:56;25.00;82.50
420;DHT22;42600;54.408;13.016;2023-07-29T11:28:23;24.80;82.40
420;DHT22;42600;54.408;13.016;2023-07-29T11:30:50;24.90;81.70
420;DHT22;42600;54.408;13.016;2023-07-29T11:33:19;24.90;81.60
420;DHT22;42600;54.408;13.016;2023-07-29T11:35:46;24.80;81.90
420;DHT22;42600;54.408;13.016;2023-07-29T11:38:16;24.50;82.60
420;DHT22;42600;54.408;13.016;2023-07-29T11:40:44;24.20;83.30
420;DHT22;42600;54.408;13.016;2023-07-29T11:43:19;24.20;83.80
420;DHT22;42600;54.408;13.016;2023-07-29T11:45:46;24.60;83.10
420;DHT22;42600;54.408;13.016;2023-07-29T11:48:12;24.50;82.40
420;DHT22;42600;54.408;13.016;2023-07-29T11:50:39;24.10;84.20
420;DHT22;42600;54.408;13.016;2023-07-29T11:53:06;23.80;85.10
420;DHT22;42600;54.408;13.016;2023-07-29T11:55:34;23.80;85.00
420;DHT22;42600;54.408;13.016;2023-07-29T11:58:01;23.90;84.80
420;DHT22;42600;54.408;13.016;2023-07-29T12:00:28;23.80;85.30
420;DHT22;42600;54.408;13.016;2023-07-29T12:02:55;23.80;85.70
420;DHT22;42600;54.408;13.016;2023-07-29T12:05:23;24.10;85.40
420;DHT22;42600;54.408;13.016;2023-07-29T12:07:50;24.40;84.60
420;DHT22;42600;54.408;13.016;2023-07-29T12:10:17;24.30;84.00
420;DHT22;42600;54.408;13.016;2023-07-29T12:12:46;24.30;83.80
420;DHT22;42600;54.408;13.016;2023-07-29T12:15:13;24.10;84.80
420;DHT22;42600;54.408;13.016;2023-07-29T12:17:40;23.90;85.10
420;DHT22;42600;54.408;13.016;2023-07-29T12:20:08;23.90;85.50
420;DHT22;42600;54.408;13.016;2023-07-29T12:22:35;24.00;85.70
420;DHT22;42600;54.408;13.016;2023-07-29T12:25:03;24.10;84.60
420;DHT22;42600;54.408;13.016;2023-07-29T12:27:30;24.30;84.60
420;DHT22;42600;54.408;13.016;2023-07-29T12:30:00;24.10;85.10
420;DHT22;42600;54.408;13.016;2023-07-29T12:32:29;24.20;84.50
420;DHT22;42600;54.408;13.016;2023-07-29T12:34:56;23.90;85.30
420;DHT22;42600;54.408;13.016;2023-07-29T12:37:31;23.80;86.10
420;DHT22;42600;54.408;13.016;2023-07-29T12:39:57;23.60;86.80
420;DHT22;42600;54.408;13.016;2023-07-29T12:42:24;23.70;87.00
420;DHT22;42600;54.408;13.016;2023-07-29T12:44:50;23.80;86.50
420;DHT22;42600;54.408;13.016;2023-07-29T12:47:18;23.90;86.20
420;DHT22;42600;54.408;13.016;2023-07-29T12:49:45;23.80;86.20
420;DHT22;42600;54.408;13.016;2023-07-29T12:52:11;23.80;86.40
420;DHT22;42600;54.408;13.016;2023-07-29T12:54:38;23.70;87.10
420;DHT22;42600;54.408;13.016;2023-07-29T12:57:06;23.80;86.80
420;DHT22;42600;54.408;13.016;2023-07-29T12:59:32;23.80;86.70
420;DHT22;42600;54.408;13.016;2023-07-29T13:01:59;23.70;87.30
420;DHT22;42600;54.408;13.016;2023-07-29T13:04:27;23.70;86.90
420;DHT22;42600;54.408;13.016;2023-07-29T13:06:53;23.60;87.10
420;DHT22;42600;54.408;13.016;2023-07-29T13:09:21;23.60;87.30
420;DHT22;42600;54.408;13.016;2023-07-29T13:11:48;23.60;87.70
420;DHT22;42600;54.408;13.016;2023-07-29T13:14:14;23.80;86.40
420;DHT22;42600;54.408;13.016;2023-07-29T13:16:41;24.10;86.30
420;DHT22;42600;54.408;13.016;2023-07-29T13:19:07;24.20;85.20
420;DHT22;42600;54.408;13.016;2023-07-29T13:21:35;24.30;85.00
420;DHT22;42600;54.408;13.016;2023-07-29T13:24:02;24.60;83.20
420;DHT22;42600;54.408;13.016;2023-07-29T13:26:29;24.50;82.10
420;DHT22;42600;54.408;13.016;2023-07-29T13:28:55;24.30;80.60
420;DHT22;42600;54.408;13.016;2023-07-29T13:31:22;24.10;80.30
420;DHT22;42600;54.408;13.016;2023-07-29T13:33:48;23.60;81.50
420;DHT22;42600;54.408;13.016;2023-07-29T13:36:15;23.50;81.50
420;DHT22;42600;54.408;13.016;2023-07-29T13:38:43;23.20;81.80
420;DHT22;42600;54.408;13.016;2023-07-29T13:41:09;23.10;82.40
420;DHT22;42600;54.408;13.016;2023-07-29T13:43:36;22.90;83.30
420;DHT22;42600;54.408;13.016;2023-07-29T13:46:02;22.40;85.10
420;DHT22;42600;54.408;13.016;2023-07-29T13:48:29;22.10;86.10
420;DHT22;42600;54.408;13.016;2023-07-29T13:50:56;21.80;86.40
420;DHT22;42600;54.408;13.016;2023-07-29T13:53:22;21.50;88.00
420;DHT22;42600;54.408;13.016;2023-07-29T13:55:50;21.10;88.40
420;DHT22;42600;54.408;13.016;2023-07-29T13:58:17;21.10;89.50
420;DHT22;42600;54.408;13.016;2023-07-29T14:00:43;21.70;87.30
420;DHT22;42600;54.408;13.016;2023-07-29T14:03:10;21.60;87.00
420;DHT22;42600;54.408;13.016;2023-07-29T14:05:36;20.90;88.90
420;DHT22;42600;54.408;13.016;2023-07-29T14:08:03;20.60;90.40
420;DHT22;42600;54.408;13.016;2023-07-29T14:10:30;20.20;89.90
420;DHT22;42600;54.408;13.016;2023-07-29T14:12:58;20.10;91.30
420;DHT22;42600;54.408;13.016;2023-07-29T14:15:24;20.20;91.40
420;DHT22;42600;54.408;13.016;2023-07-29T14:17:51;20.20;91.50
420;DHT22;42600;54.408;13.016;2023-07-29T14:20:17;20.40;91.00
420;DHT22;42600;54.408;13.016;2023-07-29T14:22:44;20.40;90.70
420;DHT22;42600;54.408;13.016;2023-07-29T14:25:11;20.30;91.20
420;DHT22;42600;54.408;13.016;2023-07-29T14:27:37;20.30;91.00
420;DHT22;42600;54.408;13.016;2023-07-29T14:30:06;20.30;90.80
420;DHT22;42600;54.408;13.016;2023-07-29T14:32:33;20.10;90.90
420;DHT22;42600;54.408;13.016;2023-07-29T14:35:00;20.20;91.20
420;DHT22;42600;54.408;13.016;2023-07-29T14:37:29;20.30;90.60
420;DHT22;42600;54.408;13.016;2023-07-29T14:39:55;20.10;91.30
420;DHT22;42600;54.408;13.016;2023-07-29T14:42:22;20.10;92.10
420;DHT22;42600;54.408;13.016;2023-07-29T14:44:48;20.10;91.60
420;DHT22;42600;54.408;13.016;2023-07-29T14:47:16;19.90;91.60
420;DHT22;42600;54.408;13.016;2023-07-29T14:49:44;19.80;92.10
420;DHT22;42600;54.408;13.016;2023-07-29T14:52:11;19.60;92.70
420;DHT22;42600;54.408;13.016;2023-07-29T14:54:37;19.70;92.70
420;DHT22;42600;54.408;13.016;2023-07-29T14:57:05;19.80;92.70
420;DHT22;42600;54.408;13.016;2023-07-29T14:59:32;19.90;92.10
420;DHT22;42600;54.408;13.016;2023-07-29T15:01:59;20.00;92.70
420;DHT22;42600;54.408;13.016;2023-07-29T15:04:27;20.40;91.80
420;DHT22;42600;54.408;13.016;2023-07-29T15:06:53;20.80;90.00
420;DHT22;42600;54.408;13.016;2023-07-29T15:09:20;20.90;89.90
420;DHT22;42600;54.408;13.016;2023-07-29T15:11:46;21.00;89.60
420;DHT22;42600;54.408;13.016;2023-07-29T15:14:13;21.20;89.10
420;DHT22;42600;54.408;13.016;2023-07-29T15:16:40;21.70;87.30
420;DHT22;42600;54.408;13.016;2023-07-29T15:19:06;21.90;88.40
420;DHT22;42600;54.408;13.016;2023-07-29T15:21:34;21.80;88.60
420;DHT22;42600;54.408;13.016;2023-07-29T15:24:01;22.10;87.60
420;DHT22;42600;54.408;13.016;2023-07-29T15:26:27;22.20;87.60
420;DHT22;42600;54.408;13.016;2023-07-29T15:28:54;22.20;87.60
420;DHT22;42600;54.408;13.016;2023-07-29T15:31:21;22.50;87.00
420;DHT22;42600;54.408;13.016;2023-07-29T15:33:47;22.60;87.20
420;DHT22;42600;54.408;13.016;2023-07-29T15:36:14;22.80;87.00
420;DHT22;42600;54.408;13.016;2023-07-29T15:38:42;22.80;86.40
420;DHT22;42600;54.408;13.016;2023-07-29T15:41:09;22.90;86.10
420;DHT22;42600;54.408;13.016;2023-07-29T15:43:35;23.00;85.90
420;DHT22;42600;54.408;13.016;2023-07-29T15:46:02;23.00;86.30